createdAt,value
2023-02-25T00:01:57.720Z,57.00
2023-02-25T00:04:31.600Z,61.40
2023-02-25T00:07:00.421Z,57.80
2023-02-25T00:09:30.124Z,60.10
2023-02-25T00:11:58.183Z,59.70
2023-02-25T00:14:26.927Z,62.50
2023-02-25T00:16:56.314Z,63.30
2023-02-25T00:19:25.618Z,60.70
2023-02-25T00:21:53.695Z,63.20
2023-02-25T00:24:21.719Z,59.20
2023-02-25T00:26:50.454Z,58.60
2023-02-25T00:29:18.504Z,63.30
2023-02-25T00:31:47.111Z,62.40
2023-02-25T00:34:17.978Z,63.70
2023-02-25T00:36:46.300Z,67.50
2023-02-25T00:39:14.682Z,68.50
2023-02-25T00:41:42.903Z,70.40
2023-02-25T00:44:11.409Z,73.70
2023-02-25T00:46:39.540Z,74.40
2023-02-25T00:49:07.520Z,75.40
2023-02-25T00:51:35.561Z,65.70
2023-02-25T00:54:03.667Z,67.30
2023-02-25T00:56:32.004Z,69.30
2023-02-25T00:59:00.484Z,60.80
2023-02-25T01:01:33.814Z,61.40
2023-02-25T01:04:02.104Z,67.50
2023-02-25T01:06:32.976Z,64.40
2023-02-25T01:09:01.605Z,66.40
2023-02-25T01:11:34.950Z,76.10
2023-02-25T01:14:06.314Z,66.50
2023-02-25T01:16:35.642Z,55.60
2023-02-25T01:19:26.095Z,69.20
2023-02-25T01:21:56.851Z,60.40
2023-02-25T01:24:31.002Z,61.60
2023-02-25T01:27:01.917Z,59.80
2023-02-25T01:29:35.568Z,70.80
2023-02-25T01:32:04.725Z,60.80
2023-02-25T01:34:33.219Z,64.60
2023-02-25T01:37:05.605Z,70.70
2023-02-25T01:39:34.314Z,64.70
2023-02-25T01:42:12.575Z,59.50
2023-02-25T01:45:11.764Z,63.20
2023-02-25T01:47:40.964Z,47.70
2023-02-25T01:50:10.280Z,50.80
2023-02-25T01:52:41.649Z,54.10
2023-02-25T01:55:10.717Z,55.40
2023-02-25T01:57:38.772Z,55.90
2023-02-25T02:00:18.486Z,55.50
2023-02-25T02:02:49.837Z,58.20
2023-02-25T02:05:18.123Z,47.10
2023-02-25T02:07:47.307Z,52.20
2023-02-25T02:10:15.540Z,54.80
2023-02-25T02:12:47.512Z,50.30
2023-02-25T02:15:15.964Z,52.30
2023-02-25T02:17:55.437Z,51.30
2023-02-25T02:20:33.530Z,48.60
2023-02-25T02:23:04.604Z,52.30
2023-02-25T02:25:36.747Z,47.60
2023-02-25T02:28:33.181Z,49.30
2023-02-25T02:31:28.814Z,56.50
2023-02-25T02:34:29.797Z,51.60
2023-02-25T02:37:00.483Z,52.70
2023-02-25T02:40:00.444Z,54.20
2023-02-25T02:42:56.412Z,49.20
2023-02-25T02:45:44.638Z,50.30
2023-02-25T02:48:23.277Z,54.10
2023-02-25T02:50:59.971Z,42.00
2023-02-25T02:53:38.897Z,45.90
2023-02-25T02:56:11.409Z,44.90
2023-02-25T02:58:44.498Z,46.70
2023-02-25T03:01:17.857Z,45.20
2023-02-25T03:03:59.892Z,44.20
2023-02-25T03:06:38.744Z,42.20
2023-02-25T03:09:13.195Z,37.90
2023-02-25T03:11:41.667Z,38.30
2023-02-25T03:14:11.781Z,39.80
2023-02-25T03:17:05.873Z,38.10
2023-02-25T03:19:42.501Z,40.40
2023-02-25T03:22:17.384Z,34.30
2023-02-25T03:25:08.776Z,38.00
2023-02-25T03:27:40.119Z,39.60
2023-02-25T03:30:27.117Z,39.00
2023-02-25T03:33:08.044Z,38.50
2023-02-25T03:35:37.977Z,35.70
2023-02-25T03:38:14.675Z,34.40
2023-02-25T03:40:43.755Z,34.70
2023-02-25T03:43:18.051Z,32.50
2023-02-25T03:45:47.226Z,32.20
2023-02-25T03:48:17.293Z,32.80
2023-02-25T03:50:51.905Z,38.70
2023-02-25T03:53:20.845Z,32.40
2023-02-25T03:55:56.691Z,35.50
2023-02-25T03:58:24.958Z,32.60
2023-02-25T04:00:57.733Z,31.50
2023-02-25T04:03:26.037Z,36.20
2023-02-25T04:05:54.463Z,34.70
2023-02-25T04:08:24.096Z,40.50
2023-02-25T04:10:52.377Z,40.50
2023-02-25T04:13:21.058Z,37.30
2023-02-25T04:15:50.519Z,31.40
2023-02-25T04:18:18.677Z,36.70
2023-02-25T04:20:46.737Z,33.60
2023-02-25T04:23:16.764Z,36.40
2023-02-25T04:25:45.064Z,33.70
2023-02-25T04:28:13.137Z,40.20
2023-02-25T04:30:41.231Z,36.90
2023-02-25T04:33:11.852Z,42.40
2023-02-25T04:35:40.144Z,32.40
2023-02-25T04:38:09.196Z,31.70
2023-02-25T04:40:37.455Z,29.80
2023-02-25T04:43:05.828Z,34.30
2023-02-25T04:45:33.861Z,33.70
2023-02-25T04:48:02.895Z,30.10
2023-02-25T04:50:30.857Z,36.30
2023-02-25T04:53:02.341Z,31.50
2023-02-25T04:55:31.483Z,35.50
2023-02-25T04:57:59.547Z,28.30
2023-02-25T05:00:27.742Z,28.70
2023-02-25T05:02:56.417Z,31.50
2023-02-25T05:05:24.487Z,30.20
2023-02-25T05:07:52.418Z,32.00
2023-02-25T05:10:20.697Z,31.50
2023-02-25T05:12:49.927Z,31.00
2023-02-25T05:15:18.017Z,28.80
2023-02-25T05:17:46.049Z,33.30
2023-02-25T05:20:14.753Z,29.20
2023-02-25T05:22:45.651Z,31.00
2023-02-25T05:25:13.570Z,31.00
2023-02-25T05:27:41.472Z,34.00
2023-02-25T05:30:13.000Z,31.40
2023-02-25T05:32:41.051Z,36.00
2023-02-25T05:35:10.075Z,32.30
2023-02-25T05:37:40.259Z,31.90
2023-02-25T05:40:10.270Z,28.90
2023-02-25T05:42:39.335Z,39.20
2023-02-25T05:45:11.481Z,32.50
2023-02-25T05:47:39.471Z,32.40
2023-02-25T05:50:08.468Z,34.50
2023-02-25T05:52:38.046Z,28.40
2023-02-25T05:55:08.757Z,29.00
2023-02-25T05:57:37.010Z,27.20
2023-02-25T06:00:15.002Z,29.50
2023-02-25T06:02:44.539Z,30.60
2023-02-25T06:05:12.999Z,29.10
2023-02-25T06:07:41.606Z,29.20
2023-02-25T06:10:10.441Z,33.00
2023-02-25T06:12:40.040Z,29.70
2023-02-25T06:15:08.656Z,34.90
2023-02-25T06:17:37.203Z,31.70
2023-02-25T06:20:06.279Z,32.10
2023-02-25T06:22:35.371Z,31.90
2023-02-25T06:25:03.596Z,31.60
2023-02-25T06:27:31.821Z,32.40
2023-02-25T06:30:03.360Z,32.40
2023-02-25T06:32:31.688Z,29.90
2023-02-25T06:35:00.125Z,32.70
2023-02-25T06:37:28.440Z,36.50
2023-02-25T06:39:56.532Z,37.30
2023-02-25T06:42:24.997Z,34.70
2023-02-25T06:44:53.123Z,34.90
2023-02-25T06:47:23.056Z,35.00
2023-02-25T06:49:51.080Z,32.00
2023-02-25T06:52:19.113Z,32.70
2023-02-25T06:54:47.086Z,34.70
2023-02-25T06:57:15.073Z,40.50
2023-02-25T06:59:43.263Z,39.00
2023-02-25T07:02:14.648Z,30.90
2023-02-25T07:04:44.059Z,31.30
2023-02-25T07:07:12.344Z,26.80
2023-02-25T07:09:40.334Z,31.30
2023-02-25T07:12:08.693Z,30.40
2023-02-25T07:14:37.599Z,29.40
2023-02-25T07:17:06.312Z,32.60
2023-02-25T07:19:34.882Z,30.50
2023-02-25T07:22:03.355Z,28.60
2023-02-25T07:24:31.654Z,34.70
2023-02-25T07:26:59.550Z,35.50
2023-02-25T07:29:27.998Z,31.60
2023-02-25T07:31:56.311Z,35.10
2023-02-25T07:34:24.620Z,32.30
2023-02-25T07:36:52.726Z,37.70
2023-02-25T07:39:20.816Z,36.60
2023-02-25T07:41:48.970Z,35.00
2023-02-25T07:44:21.078Z,35.70
2023-02-25T07:46:49.549Z,34.80
2023-02-25T07:49:17.636Z,32.80
2023-02-25T07:51:45.721Z,48.40
2023-02-25T07:54:15.857Z,38.20
2023-02-25T07:56:45.895Z,43.00
2023-02-25T07:59:14.071Z,35.20
2023-02-25T08:01:42.165Z,39.60
2023-02-25T08:04:11.822Z,39.70
2023-02-25T08:06:41.450Z,41.80
2023-02-25T08:09:12.509Z,38.70
2023-02-25T08:11:41.581Z,42.60
2023-02-25T08:14:10.103Z,40.40
2023-02-25T08:16:38.442Z,42.80
2023-02-25T08:19:07.046Z,46.10
2023-02-25T08:21:37.444Z,43.30
2023-02-25T08:24:06.438Z,48.60
2023-02-25T08:26:34.454Z,41.10
2023-02-25T08:29:05.588Z,39.60
2023-02-25T08:31:35.070Z,48.60
2023-02-25T08:34:03.609Z,47.80
2023-02-25T08:36:31.926Z,42.20
2023-02-25T08:39:01.389Z,45.20
2023-02-25T08:41:30.477Z,49.60
2023-02-25T08:44:00.780Z,39.90
2023-02-25T08:46:31.858Z,48.60
2023-02-25T08:49:02.303Z,42.80
2023-02-25T08:51:34.753Z,40.30
2023-02-25T08:54:06.824Z,41.50
2023-02-25T08:56:37.596Z,34.40
2023-02-25T08:59:06.295Z,44.10
2023-02-25T09:01:46.463Z,34.40
2023-02-25T09:04:24.428Z,33.40
2023-02-25T09:06:54.271Z,27.40
2023-02-25T09:09:22.562Z,28.00
2023-02-25T09:11:51.357Z,30.50
2023-02-25T09:14:21.116Z,37.20
2023-02-25T09:16:49.982Z,32.90
2023-02-25T09:19:18.656Z,28.50
2023-02-25T09:21:50.598Z,36.80
2023-02-25T09:24:19.658Z,31.20
2023-02-25T09:26:48.266Z,32.30
2023-02-25T09:29:17.035Z,20.10
2023-02-25T09:31:45.294Z,11.00
2023-02-25T09:34:15.505Z,10.40
2023-02-25T09:36:44.019Z,8.00
2023-02-25T09:39:15.030Z,8.50
2023-02-25T09:41:57.129Z,11.50
2023-02-25T09:44:59.858Z,8.50
2023-02-25T09:47:42.858Z,10.30
2023-02-25T09:50:22.363Z,5.70
2023-02-25T09:53:16.967Z,6.30
2023-02-25T09:55:51.448Z,7.40
2023-02-25T09:58:51.141Z,7.00
2023-02-25T10:01:34.393Z,6.90
2023-02-25T10:04:13.824Z,2.70
2023-02-25T10:06:46.570Z,3.50
2023-02-25T10:09:20.798Z,4.00
2023-02-25T10:12:18.352Z,3.20
2023-02-25T10:15:01.030Z,2.10
2023-02-25T10:18:11.407Z,2.70
2023-02-25T10:21:17.326Z,4.20
2023-02-25T10:24:21.321Z,3.50
2023-02-25T10:26:55.096Z,2.70
2023-02-25T10:29:52.630Z,2.40
2023-02-25T10:32:27.776Z,5.10
2023-02-25T10:35:00.429Z,3.80
2023-02-25T10:37:36.260Z,6.20
2023-02-25T10:40:11.950Z,3.30
2023-02-25T10:42:49.813Z,5.50
2023-02-25T10:45:26.209Z,4.70
2023-02-25T10:48:12.632Z,6.20
2023-02-25T10:50:46.221Z,4.20
2023-02-25T10:53:18.250Z,2.80
2023-02-25T10:55:52.446Z,5.80
2023-02-25T10:58:38.610Z,6.20
2023-02-25T11:01:20.506Z,3.50
2023-02-25T11:03:59.834Z,4.40
2023-02-25T11:06:35.512Z,3.50
2023-02-25T11:09:25.585Z,5.30
2023-02-25T11:12:09.713Z,2.50
2023-02-25T11:14:39.580Z,1.60
2023-02-25T11:17:15.888Z,1.60
2023-02-25T11:19:50.743Z,2.00
2023-02-25T11:22:36.209Z,3.10
2023-02-25T11:25:15.788Z,1.50
2023-02-25T11:27:54.168Z,2.10
2023-02-25T11:30:31.771Z,1.30
2023-02-25T11:33:04.533Z,1.40
2023-02-25T11:35:38.810Z,2.20
2023-02-25T11:38:24.674Z,5.00
2023-02-25T11:40:53.105Z,4.90
2023-02-25T11:43:34.185Z,2.90
2023-02-25T11:46:24.129Z,3.20
2023-02-25T11:48:58.167Z,3.30
2023-02-25T11:51:29.220Z,3.60
2023-02-25T11:54:19.011Z,4.20
2023-02-25T11:56:57.068Z,3.70
2023-02-25T11:59:37.469Z,5.70
2023-02-25T12:02:33.692Z,3.50
2023-02-25T12:05:09.223Z,3.10
2023-02-25T12:08:14.304Z,2.20
2023-02-25T12:10:48.815Z,3.20
2023-02-25T12:13:42.393Z,3.80
2023-02-25T12:16:22.997Z,9.60
2023-02-25T12:18:51.237Z,5.50
2023-02-25T12:21:34.635Z,5.20
2023-02-25T12:24:35.337Z,4.70
2023-02-25T12:27:09.715Z,4.30
2023-02-25T12:29:56.214Z,4.70
2023-02-25T12:33:05.882Z,3.50
2023-02-25T12:35:53.696Z,3.10
2023-02-25T12:38:54.483Z,3.20
2023-02-25T12:41:46.164Z,3.20
2023-02-25T12:44:34.741Z,1.90
2023-02-25T12:47:27.511Z,2.10
2023-02-25T12:50:01.692Z,1.90
2023-02-25T12:52:39.337Z,1.30
2023-02-25T12:55:30.010Z,1.70
2023-02-25T12:58:04.137Z,3.10
2023-02-25T13:00:54.137Z,3.00
2023-02-25T13:03:35.270Z,1.70
2023-02-25T13:06:16.467Z,2.80
2023-02-25T13:08:47.513Z,2.40
2023-02-25T13:11:31.241Z,2.70
2023-02-25T13:14:14.055Z,3.70
2023-02-25T13:17:24.956Z,1.70
2023-02-25T13:20:27.008Z,1.00
2023-02-25T13:23:23.013Z,1.40
2023-02-25T13:26:31.846Z,1.10
2023-02-25T13:29:20.167Z,1.50
2023-02-25T13:32:07.509Z,1.50
2023-02-25T13:35:04.285Z,2.40
2023-02-25T13:37:47.322Z,2.20
2023-02-25T13:40:41.150Z,2.20
2023-02-25T13:43:31.627Z,1.60
2023-02-25T13:46:23.971Z,1.70
2023-02-25T13:49:08.584Z,1.30
2023-02-25T13:51:59.937Z,1.00
2023-02-25T13:54:54.151Z,1.20
2023-02-25T13:57:22.215Z,1.70
2023-02-25T14:00:02.264Z,0.80
2023-02-25T14:02:40.532Z,1.60
2023-02-25T14:05:31.399Z,0.90
2023-02-25T14:08:18.551Z,0.70
2023-02-25T14:11:07.701Z,1.30
2023-02-25T14:14:14.571Z,0.80
2023-02-25T14:17:00.758Z,2.00
2023-02-25T14:19:49.254Z,0.90
2023-02-25T14:22:35.831Z,1.10
2023-02-25T14:25:35.944Z,0.90
2023-02-25T14:28:45.734Z,1.10
2023-02-25T14:31:26.733Z,0.70
2023-02-25T14:34:08.105Z,1.20
2023-02-25T14:36:59.386Z,2.30
2023-02-25T14:39:59.997Z,2.80
2023-02-25T14:43:24.229Z,1.30
2023-02-25T14:46:17.901Z,2.70
2023-02-25T14:48:57.927Z,2.20
2023-02-25T14:51:40.225Z,1.60
2023-02-25T14:54:20.890Z,1.30
2023-02-25T14:57:07.445Z,2.20
2023-02-25T14:59:52.828Z,1.60
2023-02-25T15:02:38.881Z,2.50
2023-02-25T15:05:54.747Z,5.00
2023-02-25T15:08:31.576Z,2.40
2023-02-25T15:11:33.443Z,3.40
2023-02-25T15:14:28.528Z,3.00
2023-02-25T15:17:07.215Z,2.20
2023-02-25T15:19:45.836Z,4.20
2023-02-25T15:22:13.779Z,5.00
2023-02-25T15:24:42.457Z,6.20
2023-02-25T15:27:35.394Z,4.50
2023-02-25T15:30:08.877Z,4.50
2023-02-25T15:33:02.137Z,3.60
2023-02-25T15:35:36.288Z,6.90
2023-02-25T15:38:21.060Z,8.20
2023-02-25T15:40:51.849Z,5.90
2023-02-25T15:43:19.842Z,4.00
2023-02-25T15:46:10.884Z,7.10
2023-02-25T15:48:39.643Z,4.40
2023-02-25T15:51:11.788Z,7.80
2023-02-25T15:53:45.026Z,4.70
2023-02-25T15:56:13.060Z,9.60
2023-02-25T15:58:56.655Z,8.00
2023-02-25T16:01:42.595Z,5.40
2023-02-25T16:04:50.304Z,7.20
2023-02-25T16:07:21.744Z,3.30
2023-02-25T16:09:55.246Z,2.80
2023-02-25T16:12:24.650Z,4.90
2023-02-25T16:14:54.963Z,5.30
2023-02-25T16:17:32.814Z,6.80
2023-02-25T16:20:22.133Z,4.40
2023-02-25T16:22:57.171Z,3.70
2023-02-25T16:25:37.182Z,5.00
2023-02-25T16:28:33.522Z,4.10
2023-02-25T16:31:25.055Z,4.30
2023-02-25T16:33:57.420Z,4.60
2023-02-25T16:36:38.278Z,3.50
2023-02-25T16:39:21.492Z,3.40
2023-02-25T16:41:50.168Z,5.00
2023-02-25T16:44:22.048Z,5.10
2023-02-25T16:46:53.518Z,5.60
2023-02-25T16:49:36.962Z,3.10
2023-02-25T16:52:06.213Z,2.40
2023-02-25T16:54:38.735Z,2.10
2023-02-25T16:57:18.472Z,2.90
2023-02-25T16:59:47.533Z,3.30
2023-02-25T17:02:15.603Z,2.50
2023-02-25T17:04:52.071Z,2.70
2023-02-25T17:07:25.386Z,4.30
2023-02-25T17:09:59.445Z,5.00
2023-02-25T17:12:41.284Z,3.10
2023-02-25T17:15:22.343Z,7.20
2023-02-25T17:17:58.587Z,10.80
2023-02-25T17:20:31.102Z,4.40
2023-02-25T17:23:05.975Z,5.20
2023-02-25T17:25:39.282Z,5.40
2023-02-25T17:28:23.009Z,10.20
2023-02-25T17:30:52.208Z,7.20
2023-02-25T17:33:26.334Z,10.50
2023-02-25T17:35:59.724Z,7.60
2023-02-25T17:38:29.274Z,7.40
2023-02-25T17:40:59.724Z,3.30
2023-02-25T17:43:36.651Z,2.40
2023-02-25T17:46:13.799Z,5.40
2023-02-25T17:48:49.476Z,8.00
2023-02-25T17:51:17.646Z,5.20
2023-02-25T17:53:50.075Z,6.20
2023-02-25T17:56:37.255Z,5.50
2023-02-25T17:59:07.243Z,10.80
2023-02-25T18:01:49.869Z,6.10
2023-02-25T18:04:41.472Z,4.20
2023-02-25T18:07:32.731Z,7.50
2023-02-25T18:10:02.082Z,12.50
2023-02-25T18:12:33.498Z,11.70
2023-02-25T18:15:16.565Z,12.30
2023-02-25T18:17:52.269Z,11.30
2023-02-25T18:20:26.946Z,11.90
2023-02-25T18:22:55.878Z,7.90
2023-02-25T18:25:37.569Z,5.80
2023-02-25T18:28:11.441Z,7.00
2023-02-25T18:30:39.644Z,5.90
2023-02-25T18:33:11.664Z,6.80
2023-02-25T18:35:42.187Z,6.60
2023-02-25T18:38:23.560Z,5.50
2023-02-25T18:40:54.323Z,9.00
2023-02-25T18:43:28.979Z,8.50
2023-02-25T18:45:57.182Z,10.90
2023-02-25T18:48:25.730Z,12.10
2023-02-25T18:50:55.026Z,8.30
2023-02-25T18:53:25.587Z,9.40
2023-02-25T18:55:56.345Z,7.60
2023-02-25T18:58:25.869Z,6.20
2023-02-25T19:00:57.231Z,14.60
2023-02-25T19:03:30.709Z,8.20
2023-02-25T19:05:59.091Z,8.80
2023-02-25T19:08:27.309Z,7.90
2023-02-25T19:10:55.670Z,8.50
2023-02-25T19:13:27.397Z,8.80
2023-02-25T19:15:55.772Z,13.20
2023-02-25T19:18:23.989Z,9.10
2023-02-25T19:20:52.050Z,7.30
2023-02-25T19:23:20.703Z,8.20
2023-02-25T19:25:56.268Z,9.10
2023-02-25T19:28:24.581Z,7.10
2023-02-25T19:30:52.537Z,6.90
2023-02-25T19:33:20.968Z,5.90
2023-02-25T19:35:49.567Z,10.50
2023-02-25T19:38:19.878Z,7.90
2023-02-25T19:40:49.416Z,6.70
2023-02-25T19:43:18.162Z,8.10
2023-02-25T19:45:47.182Z,9.30
2023-02-25T19:48:15.342Z,14.20
2023-02-25T19:50:43.431Z,12.80
2023-02-25T19:53:12.267Z,15.50
2023-02-25T19:55:43.960Z,10.70
2023-02-25T19:58:12.218Z,10.70
2023-02-25T20:00:46.414Z,11.70
2023-02-25T20:03:15.405Z,10.90
2023-02-25T20:05:44.757Z,13.20
2023-02-25T20:08:13.031Z,25.40
2023-02-25T20:10:43.012Z,23.90
2023-02-25T20:13:11.050Z,21.70
2023-02-25T20:15:39.482Z,19.50
2023-02-25T20:18:07.525Z,21.60
2023-02-25T20:20:36.965Z,24.60
2023-02-25T20:23:05.155Z,24.30
2023-02-25T20:25:33.853Z,23.60
2023-02-25T20:28:01.816Z,22.00
2023-02-25T20:30:29.841Z,22.10
2023-02-25T20:32:59.352Z,22.90
2023-02-25T20:35:27.914Z,37.00
2023-02-25T20:38:04.568Z,25.90
2023-02-25T20:40:32.678Z,32.50
2023-02-25T20:43:02.935Z,28.70
2023-02-25T20:45:31.563Z,26.60
2023-02-25T20:47:59.638Z,24.00
2023-02-25T20:50:28.555Z,21.40
2023-02-25T20:52:56.748Z,23.50
2023-02-25T20:55:24.992Z,25.40
2023-02-25T20:57:53.004Z,22.40
2023-02-25T21:00:21.869Z,25.80
2023-02-25T21:02:49.871Z,24.90
2023-02-25T21:05:17.964Z,26.00
2023-02-25T21:07:46.083Z,22.50
2023-02-25T21:10:14.009Z,28.90
2023-02-25T21:12:42.096Z,27.60
2023-02-25T21:15:10.716Z,24.70
2023-02-25T21:17:38.599Z,27.60
2023-02-25T21:20:07.065Z,27.90
2023-02-25T21:22:35.524Z,29.60
2023-02-25T21:25:04.834Z,30.30
2023-02-25T21:27:32.889Z,24.90
2023-02-25T21:30:01.641Z,25.00
2023-02-25T21:32:30.112Z,28.20
2023-02-25T21:34:58.131Z,28.80
2023-02-25T21:37:26.969Z,26.00
2023-02-25T21:39:55.443Z,23.00
2023-02-25T21:42:23.494Z,22.10
2023-02-25T21:44:51.972Z,21.10
2023-02-25T21:47:20.001Z,21.20
2023-02-25T21:49:48.305Z,21.60
2023-02-25T21:52:17.228Z,23.50
2023-02-25T21:54:45.248Z,21.60
2023-02-25T21:57:13.186Z,17.10
2023-02-25T21:59:41.133Z,20.80
2023-02-25T22:02:10.477Z,19.50
2023-02-25T22:04:38.574Z,23.10
2023-02-25T22:07:06.582Z,19.90
2023-02-25T22:09:34.549Z,21.10
2023-02-25T22:12:02.564Z,18.10
2023-02-25T22:14:30.600Z,15.80
2023-02-25T22:16:59.957Z,16.40
2023-02-25T22:19:29.985Z,15.90
2023-02-25T22:21:57.967Z,15.80
2023-02-25T22:24:26.013Z,18.10
2023-02-25T22:26:54.136Z,17.00
2023-02-25T22:29:22.720Z,16.80
2023-02-25T22:31:50.803Z,14.90
2023-02-25T22:34:19.311Z,15.20
2023-02-25T22:36:48.056Z,17.00
2023-02-25T22:39:16.468Z,15.50
2023-02-25T22:41:44.664Z,16.40
2023-02-25T22:44:13.274Z,18.40
2023-02-25T22:46:41.418Z,21.50
2023-02-25T22:49:12.188Z,21.80
2023-02-25T22:51:42.784Z,18.90
2023-02-25T22:54:16.075Z,14.00
2023-02-25T22:56:45.572Z,17.40
2023-02-25T22:59:14.673Z,19.30
2023-02-25T23:01:42.792Z,18.20
2023-02-25T23:04:11.635Z,20.40
2023-02-25T23:06:44.496Z,19.70
2023-02-25T23:09:14.546Z,20.70
2023-02-25T23:11:44.196Z,23.90
2023-02-25T23:14:13.432Z,23.90
2023-02-25T23:16:45.849Z,23.00
2023-02-25T23:19:17.815Z,22.90
2023-02-25T23:21:46.089Z,22.30
2023-02-25T23:24:18.523Z,25.40
2023-02-25T23:26:50.579Z,25.40
2023-02-25T23:29:18.899Z,23.20
2023-02-25T23:31:48.931Z,22.40
2023-02-25T23:34:20.552Z,22.30
2023-02-25T23:36:48.723Z,18.10
2023-02-25T23:39:16.998Z,18.70
2023-02-25T23:41:45.058Z,12.70
2023-02-25T23:44:13.919Z,18.30
2023-02-25T23:46:46.126Z,20.10
2023-02-25T23:49:17.125Z,16.50
2023-02-25T23:51:47.418Z,14.90
2023-02-25T23:54:18.113Z,11.40
2023-02-25T23:56:48.824Z,11.80
2023-02-25T23:59:17.509Z,10.50
